Churchill Airport
CYYQ : now visible

Airfield :











YOU CAN JOIN US ON...

 
LOGIN :

Register | Disclaimer

   EN    FR    IT 

 









Legend :    VFR   Marginal VFR   IFR   Intensive IFR   Very Intensive IFR
Visi :
Ceiling :
>= 8 km
>= 3000ft
5 to 8 km
1000 to 3000 ft
1500m to 5 km
500 to 1000 ft
800 to 1500m
200 to 500 ft
< 800m
< 200 ft
Symbols :   Thunderstorms  Fog  Heavy snow  Heavy precipitations  Wind > 20 kt






- Airport Elevation : 94 ft
- IATA code : YYQ


CYYQ - Churchill

CURRENT METAR :
  • 212100Z 22008KT 15SM FEW250 08/M03 A2962 RMK CI2 SLP032

EXPIRED METARs :
  • 212000Z 22006KT 15SM FEW250 08/M03 A2963 RMK CI2 SLP037
  • 211900Z 22004KT 15SM FEW250 08/M03 A2965 RMK CI2 SLP043

TAF TAF CYYQ
Valid from the 21 at 18:00 until the 22 at 18:00 UTC


211738Z 2118/2218 22006KT P6SM SCT240
FM212200 18005KT P6SM FEW250
FM220500 02010KT P6SM SCT005 BKN200
TEMPO 2205/2212 1SM BR BKN005
PROB40 2205/2212 1/2SM -FZDZ FZFG BKN003
FM221200 02015G25KT P6SM SCT005 OVC020
TEMPO 2212/2216 1SM -SN OVC005
FM221600 01020G30KT 3SM -SN SCT005 OVC012
TEMPO 2216/2218 1/2SM -SN BLSN VV003 RMK NXT FCST BY 220000Z
CZWG FIR / North America



MET'MAP, your aeronautical weather chart ! - Copyright ORBIFLY December 2007 - Disclaimer

ORBIFLY MET'MAP TEAM :

Programming & Development : Alexandra Zaïnal
Concept & original design : Baudouin d'Aumeries
Assistance for programming : Marc-Olivier Méhu
Technical & hardware support : Manuel Goepfert

Contact : metmap@orbifly.com




SOURCES & CREDITS :

   NOAA       Earth
Advisory